3N6 weather

Old Bridge Airport
Old Bridge, New Jersey, United States

Public forecast

Using degrees Fahrenheit for public forecast. Weather courtesy of forecast.io.

Closest aviation weather report (METAR) to Old Bridge Airport

Closest report is Monmouth Executive Airport, 13.3 nm (24.6 km) SE. Retrieved 2020/02/17 20:56 UTC (15 minutes ago):

KBLM 172056Z AUTO 12006KT 10SM CLR 08/M06 A3027 RMK AO2 SLP253 T00781056 53005

Closest aviation forecast (TAF) to Old Bridge Airport

Closest forecast is Trenton Mercer Airport, 21.6 nm (40.0 km) W. Retrieved 2020/02/17 18:30 UTC (3 hours ago):

TAF KTTN 171729Z 1718/1818 VRB04KT P6SM FEW200 FM180500 08005KT P6SM BKN200 FM181100 10006KT P6SM OVC050 FM181200 11006KT P6SM OVC030 FM181500 14007KT 5SM -SHRA BR OVC015 FM181700 17007KT 5SM -SHRA BR OVC010